Sterling, VA (20165)

3:22 PM EST on February 25, 2017 (GMT -0500)
Inwood Court | | Change Station
Active Advisory: Severe Thunderstorm Watch

Elev 0 ft 39.05 °N, 77.39 °W | Updated 2 minutes ago

Rain
Rain
57.7 °F
Feels Like 57.7 °F
N
2.5
Wind Variable Wind from East
Gusts 6.8 mph

Today
High -- | Low -- °F
--% Chance of Precip.
Yesterday
High -- | Low -- °F
Precip. -- in
Pressure 29.52 in
Visibility 7.0 miles
Clouds Few 2200 ft
Mostly Cloudy 3500 ft
Overcast 6500 ft
Dew Point 49 °F
Humidity 72%
Rainfall 0.00 in
Snow Depth Not available.
6:47 AM 5:58 PM
Waning Crescent, 1% visible
SPECI KIAD 252010Z 32011KT 7SM FEW022 BKN035CB OVC065 12/09 A2952 RMK AO2 RAE10 TSE10 TS MOV NE CB SE MOV NE P0008 T01220094
Pressure 29.52 in
Visibility 7.0 miles
Clouds Few 2200 ft
Mostly Cloudy 3500 ft
Overcast 6500 ft
Dew Point 49 °F
Humidity 72%
Rainfall 0.00 in
Snow Depth Not available.
6:47 AM 5:58 PM
Waning Crescent, 1% visible
SPECI KIAD 252010Z 32011KT 7SM FEW022 BKN035CB OVC065 12/09 A2952 RMK AO2 RAE10 TSE10 TS MOV NE CB SE MOV NE P0008 T01220094

Get Your Daily Forecast Email!

Thanks for signing up!

Be on the lookout for a verification email in your inbox.

You'll start receiving the daily forecast at 8 AM.

×

10-Day Weather Forecast

Almanac

Astronomy

Feb. 25, 2017 Rise Set
Actual Time
Civil Twilight
Nautical Twilight
Astronomical Twilight
Moon
Length Of Visible Light
Length of Day
Tomorrow will be .
, % of the Moon is Illuminated

Today's Extremes

State Highs State Lows

Community

WunderPhotos

Upload Photos

1,962,540 photos uploaded!

WunderBlog® & News

Nearby

Air Quality

  Air Quality AQ Index Pollutant
Not available.

Snow Depth

Station Depth Elevation

Earthquake Activity

City Distance Mag. Time & Date
Minimum magnitude displayed is 2.5.

Coastal Water Temperatures

Place Temperature

Stations

Nearby Weather Stations

Station Location Temp Windchill Dew Point Humidity Wind Precip. Elev Updated Type
                   

Watches & Warnings

Severe Thunderstorm Watch
Issued: 3:03 PM EST Feb. 25, 2017 – National Weather Service

Severe Thunderstorm Watch 39 remains in effect until 800 PM EST

VA
. Virginia counties included are

Amelia Appomattox Arlington
Brunswick Buckingham Campbell
Caroline Charles City Charlotte
Chesterfield Culpeper Cumberland
Dinwiddie Essex Fairfax
Fauquier Fluvanna Gloucester
Goochland Greensville Halifax
Hanover Henrico Isle of Wight
James City King And Queen King George
King William Lancaster Loudoun
Louisa Lunenburg Mathews
Mecklenburg Middlesex New Kent
Northumberland Nottoway Orange
Pittsylvania Powhatan Prince Edward
Prince George Prince William Rappahannock
Richmond Southampton Spotsylvania
Stafford Surry Sussex
Westmoreland York


Virginia independent cities included are

Alexandria Colonial Heights Danville
Emporia Fairfax Falls church
Franklin Fredericksburg Hampton
Hopewell Manassas Manassas Park
Newport News Petersburg Poquoson
Richmond Williamsburg